Time;durP1;ratioP1;P1;durP2;ratioP2;P2;SDS_P1;SDS_P2;PMS_P1;PMS_P2;Temp;Humidity;BMP_temperature;BMP_pressure;BME280_temperature;BME280_humidity;BME280_pressure;Samples;Min_cycle;Max_cycle;Signal;HPM_P1;HPM_P2
2023/09/11 00:01:14;;;;;;;11.38;7.38;;;25.60;99.90;;;;;;5092847;28;20203;-73
2023/09/11 00:03:40;;;;;;;11.35;6.75;;;25.60;99.90;;;;;;5092626;28;20226;-73
2023/09/11 00:06:06;;;;;;;8.35;7.10;;;25.60;99.90;;;;;;5093005;28;20166;-73
2023/09/11 00:08:32;;;;;;;7.30;6.53;;;25.50;99.90;;;;;;5093196;28;20164;-73
2023/09/11 00:10:58;;;;;;;9.52;6.68;;;25.50;99.90;;;;;;5093244;28;20176;-74
2023/09/11 00:13:24;;;;;;;8.30;6.38;;;25.40;99.90;;;;;;5092967;28;20635;-74
2023/09/11 00:15:50;;;;;;;8.55;6.07;;;25.40;99.90;;;;;;5092790;28;20182;-73
2023/09/11 00:18:15;;;;;;;6.97;6.05;;;25.40;99.90;;;;;;5092288;28;20259;-73
2023/09/11 00:20:41;;;;;;;10.05;5.82;;;25.40;99.90;;;;;;5092796;28;20207;-73
2023/09/11 00:23:09;;;;;;;10.05;5.75;;;25.30;99.90;;;;;;5092731;28;20172;-72
2023/09/11 00:25:35;;;;;;;14.45;6.05;;;25.30;99.90;;;;;;5091547;28;20228;-73
2023/09/11 00:28:02;;;;;;;5.88;5.35;;;25.30;99.90;;;;;;5092693;28;20168;-73
2023/09/11 00:30:27;;;;;;;11.18;6.20;;;25.30;99.90;;;;;;5092640;28;20789;-73
2023/09/11 00:32:53;;;;;;;11.40;5.60;;;25.40;1.00;;;;;;5092422;28;20301;-73
2023/09/11 00:35:18;;;;;;;9.82;5.60;;;25.40;33.10;;;;;;5092703;28;20525;-73
2023/09/11 00:37:44;;;;;;;9.82;5.70;;;25.40;36.00;;;;;;5091257;28;20205;-72
2023/09/11 00:40:10;;;;;;;7.68;6.05;;;25.40;1.00;;;;;;5092784;28;20568;-72
2023/09/11 00:42:36;;;;;;;9.15;5.25;;;25.40;99.90;;;;;;5092594;28;20265;-73
2023/09/11 00:45:01;;;;;;;9.20;5.80;;;25.30;99.90;;;;;;5096118;28;20220;-73
2023/09/11 00:47:28;;;;;;;11.02;5.63;;;25.30;1.00;;;;;;5095981;28;20183;-72
2023/09/11 00:49:55;;;;;;;10.40;5.68;;;25.30;1.00;;;;;;5096149;28;20160;-72
2023/09/11 00:52:21;;;;;;;9.25;5.75;;;25.30;1.00;;;;;;5096195;28;20711;-73
2023/09/11 00:54:47;;;;;;;11.63;5.70;;;25.30;1.00;;;;;;5095996;28;20195;-73
2023/09/11 00:57:17;;;;;;;14.20;5.93;;;25.20;1.00;;;;;;5096042;28;20180;-73
2023/09/11 00:59:50;;;;;;;11.63;5.70;;;25.20;1.00;;;;;;5096044;28;20200;-72
2023/09/11 01:02:16;;;;;;;7.32;5.65;;;25.20;1.00;;;;;;5095766;28;20190;-72
2023/09/11 01:04:43;;;;;;;10.88;5.90;;;25.30;88.90;;;;;;5095970;28;20683;-72
2023/09/11 01:07:08;;;;;;;8.98;5.13;;;25.30;1.00;;;;;;5095883;28;20176;-72
2023/09/11 01:09:34;;;;;;;6.78;5.85;;;25.30;1.00;;;;;;5095858;28;20176;-72
2023/09/11 01:12:00;;;;;;;11.40;5.70;;;25.40;1.00;;;;;;5095760;28;20175;-72
2023/09/11 01:14:27;;;;;;;10.63;5.90;;;25.30;1.00;;;;;;5095669;28;20217;-72
2023/09/11 01:17:13;;;;;;;8.85;5.80;;;25.40;1.00;;;;;;5095369;28;20165;-72
2023/09/11 01:20:08;;;;;;;8.75;5.80;;;25.40;1.00;;;;;;5095085;28;20222;-72
2023/09/11 01:22:53;;;;;;;9.82;5.80;;;25.30;1.00;;;;;;5095579;28;20245;-73
2023/09/11 01:25:39;;;;;;;11.90;7.13;;;25.20;99.90;;;;;;5096010;28;20280;-72
2023/09/11 01:28:26;;;;;;;11.30;7.43;;;25.00;1.00;;;;;;5095433;28;20249;-72
2023/09/11 01:30:54;;;;;;;11.00;6.30;;;24.80;1.00;;;;;;5094916;28;20186;-72
2023/09/11 01:33:20;;;;;;;11.18;6.65;;;24.70;1.00;;;;;;5095337;28;20251;-72
2023/09/11 01:35:45;;;;;;;15.43;7.00;;;24.50;1.00;;;;;;5093913;28;20378;-72
2023/09/11 01:38:11;;;;;;;12.20;6.93;;;24.40;1.00;;;;;;5095315;28;20173;-72
2023/09/11 01:40:39;;;;;;;7.70;6.53;;;24.30;1.00;;;;;;5095225;28;20207;-72
2023/09/11 01:43:08;;;;;;;14.32;7.05;;;24.10;1.00;;;;;;5095020;28;20193;-72
2023/09/11 01:45:36;;;;;;;14.45;7.00;;;24.00;1.00;;;;;;5094877;28;20171;-73
2023/09/11 01:48:04;;;;;;;13.70;6.95;;;24.00;1.00;;;;;;5094982;28;20172;-71
2023/09/11 01:50:30;;;;;;;11.55;6.88;;;24.00;1.00;;;;;;5094989;28;20183;-72
2023/09/11 01:52:57;;;;;;;9.27;6.85;;;23.90;1.00;;;;;;5094911;28;20175;-73
2023/09/11 01:55:22;;;;;;;10.82;7.05;;;23.90;1.00;;;;;;5094714;28;20176;-72
2023/09/11 01:57:48;;;;;;;12.55;7.22;;;23.80;1.00;;;;;;5094721;28;20201;-72
2023/09/11 02:00:14;;;;;;;8.23;7.13;;;23.70;1.00;;;;;;5094483;28;20207;-73
2023/09/11 02:02:40;;;;;;;11.95;7.30;;;23.60;1.00;;;;;;5094711;28;20241;-73
2023/09/11 02:05:06;;;;;;;8.00;6.78;;;23.50;1.00;;;;;;5094693;28;20168;-73
2023/09/11 02:07:32;;;;;;;10.65;7.13;;;23.40;1.00;;;;;;5094537;28;20172;-72
2023/09/11 02:09:57;;;;;;;11.50;6.78;;;23.40;1.00;;;;;;5094627;28;20171;-74
2023/09/11 02:12:23;;;;;;;15.13;6.95;;;23.40;1.00;;;;;;5094441;28;20514;-73
2023/09/11 02:14:49;;;;;;;10.25;7.22;;;23.50;1.00;;;;;;5094105;28;20214;-73
2023/09/11 02:17:14;;;;;;;11.68;7.38;;;23.50;1.00;;;;;;5094432;28;20182;-72
2023/09/11 02:19:40;;;;;;;9.10;6.82;;;23.40;1.00;;;;;;5094194;28;20629;-72
2023/09/11 02:22:05;;;;;;;13.80;6.88;;;23.40;1.00;;;;;;5094425;28;20164;-72
2023/09/11 02:24:31;;;;;;;10.27;6.95;;;23.40;1.00;;;;;;5094294;28;20176;-72
2023/09/11 02:26:57;;;;;;;9.77;7.28;;;23.40;1.00;;;;;;5092863;28;20168;-72
2023/09/11 02:29:23;;;;;;;12.93;7.57;;;23.40;1.00;;;;;;5093927;28;20183;-72
2023/09/11 02:31:48;;;;;;;10.30;6.68;;;23.30;1.00;;;;;;5094206;28;20175;-72
2023/09/11 02:34:14;;;;;;;9.27;6.68;;;23.30;1.00;;;;;;5094193;28;20627;-72
2023/09/11 02:36:40;;;;;;;12.00;6.80;;;23.30;1.00;;;;;;5094144;28;20168;-73
2023/09/11 02:39:05;;;;;;;11.07;6.90;;;23.30;1.00;;;;;;5092784;28;20172;-73
2023/09/11 02:41:31;;;;;;;9.68;7.07;;;23.30;1.00;;;;;;5093791;28;20200;-72
2023/09/11 02:43:57;;;;;;;11.73;7.32;;;23.40;1.00;;;;;;5093549;28;20203;-72
2023/09/11 02:46:22;;;;;;;8.10;6.47;;;23.40;1.00;;;;;;5094000;28;20172;-72
2023/09/11 02:48:48;;;;;;;11.20;6.68;;;23.30;1.00;;;;;;5094103;28;20519;-73
2023/09/11 02:51:15;;;;;;;10.43;7.00;;;23.30;1.00;;;;;;5093902;28;20175;-72
2023/09/11 02:53:41;;;;;;;9.70;6.78;;;23.20;1.00;;;;;;5093882;28;20164;-72
2023/09/11 02:56:06;;;;;;;11.55;6.90;;;23.30;1.00;;;;;;5093681;28;20349;-72
2023/09/11 02:58:32;;;;;;;10.88;6.80;;;23.30;1.00;;;;;;5093472;28;20179;-72
2023/09/11 03:01:04;;;;;;;10.02;7.15;;;23.30;1.00;;;;;;5093696;28;20203;-72
2023/09/11 03:03:31;;;;;;;9.00;7.07;;;23.30;1.00;;;;;;5092336;28;20236;-72
2023/09/11 03:05:58;;;;;;;7.53;6.75;;;23.30;1.00;;;;;;5093048;28;20182;-73
2023/09/11 03:08:24;;;;;;;8.00;6.38;;;23.30;1.00;;;;;;5093732;28;20196;-72
2023/09/11 03:10:50;;;;;;;13.05;6.82;;;23.40;1.00;;;;;;5093039;28;20211;-72
2023/09/11 03:13:16;;;;;;;10.68;6.95;;;23.40;1.00;;;;;;5093615;28;20171;-72
2023/09/11 03:15:44;;;;;;;8.45;7.20;;;23.40;1.00;;;;;;5093419;28;20163;-72
2023/09/11 03:18:10;;;;;;;11.38;6.30;;;23.30;1.00;;;;;;5091804;28;20182;-73
2023/09/11 03:20:36;;;;;;;8.35;6.53;;;23.30;1.00;;;;;;5093286;28;20203;-73
2023/09/11 03:23:01;;;;;;;12.23;7.32;;;23.30;1.00;;;;;;5093285;28;20507;-74
2023/09/11 03:25:27;;;;;;;9.98;7.35;;;23.20;1.00;;;;;;5092790;28;20168;-72
2023/09/11 03:27:53;;;;;;;10.70;7.63;;;23.20;1.00;;;;;;5093224;28;20182;-72
2023/09/11 03:30:19;;;;;;;11.15;8.02;;;23.10;1.00;;;;;;5093301;28;20623;-72
2023/09/11 03:32:44;;;;;;;11.02;6.85;;;23.10;1.00;;;;;;5093187;28;20160;-72
2023/09/11 03:35:10;;;;;;;9.02;7.38;;;23.00;1.00;;;;;;5093179;28;20266;-72
2023/09/11 03:37:36;;;;;;;10.05;7.25;;;22.90;1.00;;;;;;5093114;28;20531;-72
2023/09/11 03:40:07;;;;;;;11.68;7.75;;;22.70;1.00;;;;;;5092637;28;20302;-72
2023/09/11 03:42:34;;;;;;;11.35;7.45;;;22.70;1.00;;;;;;5092863;28;20160;-72
2023/09/11 03:45:00;;;;;;;10.68;7.32;;;22.60;1.00;;;;;;5092907;28;20171;-72
2023/09/11 03:47:25;;;;;;;12.48;7.60;;;22.50;1.00;;;;;;5091560;28;20168;-72
2023/09/11 03:49:51;;;;;;;15.90;7.97;;;22.50;1.00;;;;;;5092990;28;20709;-72
2023/09/11 03:52:16;;;;;;;10.68;7.95;;;22.40;1.00;;;;;;5092780;28;20536;-72
2023/09/11 03:54:42;;;;;;;11.45;7.70;;;22.30;1.00;;;;;;5092251;28;20164;-72
2023/09/11 03:57:08;;;;;;;14.75;8.13;;;22.20;1.00;;;;;;5092816;28;20176;-72
2023/09/11 03:59:33;;;;;;;14.90;7.95;;;22.20;2.30;;;;;;5092690;28;20200;-72
2023/09/11 04:01:59;;;;;;;12.48;8.27;;;22.10;4.60;;;;;;5091745;28;20216;-73
2023/09/11 04:04:24;;;;;;;12.98;8.60;;;22.00;9.20;;;;;;5092647;28;20627;-72
2023/09/11 04:06:50;;;;;;;14.70;9.10;;;22.00;12.90;;;;;;5092567;28;20263;-72
2023/09/11 04:09:16;;;;;;;12.25;8.75;;;21.90;17.10;;;;;;5092462;28;20183;-72
2023/09/11 04:11:41;;;;;;;11.23;8.93;;;21.90;20.00;;;;;;5091244;28;20176;-72
2023/09/11 04:14:07;;;;;;;14.50;9.30;;;21.90;20.10;;;;;;5092522;28;20534;-72
2023/09/11 04:16:32;;;;;;;15.13;9.25;;;21.80;24.10;;;;;;5091099;28;20176;-71
2023/09/11 04:18:58;;;;;;;13.77;9.25;;;21.70;26.60;;;;;;5094523;28;20257;-72
2023/09/11 04:21:23;;;;;;;15.40;9.10;;;21.70;30.10;;;;;;5096109;28;20208;-73
2023/09/11 04:23:49;;;;;;;13.30;9.57;;;21.60;31.60;;;;;;5095676;28;20176;-72
2023/09/11 04:26:15;;;;;;;14.20;9.40;;;21.60;33.90;;;;;;5096077;28;20179;-72
2023/09/11 04:28:41;;;;;;;19.60;9.63;;;21.60;36.00;;;;;;5096360;28;20160;-71
2023/09/11 04:31:06;;;;;;;12.73;9.35;;;21.60;36.00;;;;;;5096048;28;20187;-72
2023/09/11 04:33:33;;;;;;;12.18;9.57;;;21.50;39.30;;;;;;5096190;28;20206;-72
2023/09/11 04:35:59;;;;;;;10.82;9.63;;;21.40;43.50;;;;;;5095943;28;20176;-72
2023/09/11 04:38:25;;;;;;;12.27;10.23;;;21.40;46.50;;;;;;5095636;28;20182;-71
2023/09/11 04:40:57;;;;;;;12.93;10.32;;;21.40;50.40;;;;;;5095698;28;20230;-72
2023/09/11 04:43:23;;;;;;;18.25;10.57;;;21.40;52.60;;;;;;5096057;28;20164;-72
2023/09/11 04:45:49;;;;;;;12.23;10.88;;;21.30;54.90;;;;;;5095501;28;20199;-72
2023/09/11 04:48:15;;;;;;;16.35;11.07;;;21.20;58.70;;;;;;5094450;28;20496;-72
2023/09/11 04:50:41;;;;;;;12.95;10.65;;;21.20;61.40;;;;;;5094582;28;20180;-72
2023/09/11 04:53:06;;;;;;;16.42;11.05;;;21.20;64.80;;;;;;5094812;28;20172;-72
2023/09/11 04:55:32;;;;;;;13.07;11.30;;;21.10;67.50;;;;;;5094612;28;20258;-72
2023/09/11 04:57:57;;;;;;;15.13;11.10;;;21.20;70.40;;;;;;5095234;28;20637;-72
2023/09/11 05:00:24;;;;;;;13.38;11.70;;;21.10;72.10;;;;;;5095009;28;20231;-72
2023/09/11 05:02:50;;;;;;;18.13;12.05;;;21.10;73.60;;;;;;5095281;28;20637;-73
2023/09/11 05:05:16;;;;;;;13.40;11.45;;;21.10;76.20;;;;;;5094896;28;20164;-73
2023/09/11 05:07:41;;;;;;;13.88;12.38;;;21.10;77.90;;;;;;5094969;28;20521;-73
2023/09/11 05:10:08;;;;;;;19.38;12.43;;;21.10;80.80;;;;;;5095346;28;20635;-71
2023/09/11 05:12:34;;;;;;;14.55;11.68;;;21.10;81.90;;;;;;5094824;28;20167;-72
2023/09/11 05:15:00;;;;;;;15.52;11.80;;;21.20;81.10;;;;;;5095291;28;20172;-72
2023/09/11 05:17:25;;;;;;;19.73;11.77;;;21.20;82.10;;;;;;5094708;28;20563;-73
2023/09/11 05:19:51;;;;;;;15.73;11.50;;;21.30;83.50;;;;;;5094718;28;20228;-72
2023/09/11 05:22:17;;;;;;;19.38;11.85;;;21.30;80.70;;;;;;5094249;28;20207;-71
2023/09/11 05:24:42;;;;;;;20.40;12.85;;;21.30;79.80;;;;;;5094619;28;20175;-71
2023/09/11 05:27:08;;;;;;;18.25;12.80;;;21.30;81.30;;;;;;5094542;28;20168;-72
2023/09/11 05:29:33;;;;;;;20.38;12.73;;;21.40;77.90;;;;;;5094169;28;20221;-72
2023/09/11 05:31:59;;;;;;;18.52;12.68;;;21.40;74.90;;;;;;5093610;28;20539;-72
2023/09/11 05:34:24;;;;;;;16.73;12.68;;;21.60;72.10;;;;;;5094418;28;20598;-73
2023/09/11 05:36:50;;;;;;;19.35;13.25;;;21.60;66.60;;;;;;5094228;28;20279;-72
2023/09/11 05:39:15;;;;;;;16.85;13.15;;;21.70;64.40;;;;;;5094570;28;20171;-72
2023/09/11 05:41:41;;;;;;;18.50;13.43;;;21.90;58.60;;;;;;5094097;28;20198;-73
2023/09/11 05:44:07;;;;;;;17.13;12.90;;;22.10;49.00;;;;;;5094102;28;20211;-73
2023/09/11 05:46:32;;;;;;;19.05;13.52;;;22.40;40.90;;;;;;5093917;28;20168;-73
2023/09/11 05:48:58;;;;;;;19.85;13.93;;;22.60;27.00;;;;;;5093947;28;20201;-74
2023/09/11 05:51:24;;;;;;;19.67;13.10;;;23.00;12.40;;;;;;5093612;28;20576;-72
2023/09/11 05:53:49;;;;;;;17.02;12.48;;;23.10;3.10;;;;;;5093855;28;20221;-72
2023/09/11 05:56:15;;;;;;;21.35;12.90;;;22.90;10.40;;;;;;5092829;28;20168;-74
2023/09/11 05:58:41;;;;;;;17.40;13.38;;;23.00;9.60;;;;;;5093873;28;20176;-73
2023/09/11 06:01:07;;;;;;;15.70;12.93;;;22.90;10.80;;;;;;5093717;28;20211;-72
2023/09/11 06:03:33;;;;;;;19.65;12.93;;;23.00;13.70;;;;;;5093453;28;20172;-74
2023/09/11 06:06:01;;;;;;;18.40;13.43;;;23.60;1.00;;;;;;5093719;28;20618;-75
2023/09/11 06:08:27;;;;;;;17.42;12.85;;;24.30;1.00;;;;;;5093875;28;20188;-75
2023/09/11 06:10:52;;;;;;;18.83;12.68;;;25.40;1.00;;;;;;5093147;28;20635;-76
2023/09/11 06:13:18;;;;;;;16.70;12.48;;;26.40;1.00;;;;;;5093524;28;20168;-75
2023/09/11 06:15:44;;;;;;;16.60;12.48;;;27.30;1.00;;;;;;5093909;28;20203;-76
2023/09/11 06:18:10;;;;;;;21.05;11.50;;;28.10;87.80;;;;;;5091847;28;20176;-77
2023/09/11 06:20:35;;;;;;;18.27;11.80;;;28.70;99.90;;;;;;5093219;28;20218;-77
2023/09/11 06:23:02;;;;;;;18.83;11.48;;;29.60;99.90;;;;;;5092936;28;20182;-77
2023/09/11 06:25:27;;;;;;;18.85;11.30;;;30.50;1.00;;;;;;5092918;28;20176;-78
2023/09/11 06:27:53;;;;;;;18.75;11.95;;;31.10;99.90;;;;;;5093157;28;20666;-76
2023/09/11 06:30:19;;;;;;;17.38;11.52;;;30.70;1.00;;;;;;5093308;28;20670;-75
2023/09/11 06:32:45;;;;;;;19.08;11.52;;;29.80;1.00;;;;;;5093397;28;20171;-75
2023/09/11 06:35:10;;;;;;;14.50;11.60;;;28.70;1.00;;;;;;5092606;28;20160;-75
2023/09/11 06:37:37;;;;;;;14.85;11.95;;;28.10;99.90;;;;;;5093283;28;20168;-75
2023/09/11 06:40:07;;;;;;;18.52;10.90;;;28.00;99.90;;;;;;5093377;28;20218;-78
2023/09/11 06:42:34;;;;;;;22.13;11.68;;;28.40;33.40;;;;;;5092646;28;20186;-79
2023/09/11 06:44:59;;;;;;;18.15;10.48;;;29.10;1.00;;;;;;5093343;28;20186;-79
2023/09/11 06:47:25;;;;;;;16.13;10.90;;;29.80;1.00;;;;;;5093368;28;20168;-77
2023/09/11 06:49:51;;;;;;;18.23;10.70;;;30.50;1.00;;;;;;5092756;28;20258;-76
2023/09/11 06:52:17;;;;;;;14.20;10.50;;;30.00;1.00;;;;;;5093180;28;20196;-76
2023/09/11 06:54:43;;;;;;;13.23;10.43;;;29.40;1.00;;;;;;5091569;28;20615;-78
2023/09/11 06:57:08;;;;;;;15.18;10.50;;;29.50;1.00;;;;;;5092894;28;20176;-80
2023/09/11 06:59:34;;;;;;;14.27;10.40;;;29.40;1.00;;;;;;5092872;28;20199;-81
2023/09/11 07:02:00;;;;;;;14.45;10.73;;;30.10;1.00;;;;;;5092861;28;20538;-82
2023/09/11 07:04:25;;;;;;;13.32;10.50;;;31.10;99.90;;;;;;5092137;28;20186;-80
2023/09/11 07:06:51;;;;;;;16.20;10.48;;;31.80;1.00;;;;;;5092412;28;20172;-81
2023/09/11 07:09:17;;;;;;;17.33;10.45;;;31.60;1.00;;;;;;5093027;28;20184;-81
2023/09/11 07:11:43;;;;;;;11.57;9.88;;;32.30;99.90;;;;;;5092977;28;20225;-80
2023/09/11 07:14:12;;;;;;;10.88;9.70;;;33.00;1.00;;;;;;5094004;28;20172;-82
2023/09/11 07:16:39;;;;;;;12.43;9.23;;;33.90;1.00;;;;;;5092426;28;20255;-80
2023/09/11 07:19:06;;;;;;;15.15;10.20;;;34.40;1.00;;;;;;5092423;28;20302;-75
2023/09/11 07:21:31;;;;;;;14.88;9.45;;;34.60;99.90;;;;;;5092253;28;20640;-76
2023/09/11 07:23:57;;;;;;;12.80;10.00;;;33.60;1.00;;;;;;5092579;28;20250;-76
2023/09/11 07:26:22;;;;;;;13.13;10.05;;;32.90;1.00;;;;;;5093087;28;20202;-78
2023/09/11 07:29:02;;;;;;;13.50;9.70;;;32.60;1.00;;;;;;5091575;28;20180;-81
2023/09/11 07:31:32;;;;;;;11.77;8.82;;;32.60;1.00;;;;;;5092717;28;20294;-81
2023/09/11 07:33:57;;;;;;;11.77;8.75;;;34.20;1.00;;;;;;5091913;28;20178;-78
2023/09/11 07:36:24;;;;;;;13.70;9.35;;;35.30;99.90;;;;;;5092778;28;20184;-79
2023/09/11 07:38:49;;;;;;;10.10;8.70;;;34.90;99.90;;;;;;5092676;28;20168;-80
2023/09/11 07:41:17;;;;;;;14.90;8.82;;;35.50;99.90;;;;;;5092770;28;20666;-80
2023/09/11 07:43:49;;;;;;;12.90;9.15;;;35.40;99.90;;;;;;5092774;28;20210;-79
2023/09/11 07:46:18;;;;;;;10.90;8.65;;;35.70;99.90;;;;;;5092696;28;20244;-78
2023/09/11 07:48:44;;;;;;;10.13;8.38;;;34.90;99.90;;;;;;5091892;28;20178;-78
2023/09/11 07:51:10;;;;;;;12.73;8.70;;;35.00;99.90;;;;;;5092761;28;20176;-77
2023/09/11 07:53:35;;;;;;;9.60;8.52;;;35.60;99.90;;;;;;5096920;28;20167;-78
2023/09/11 07:56:10;;;;;;;15.50;8.50;;;37.10;99.90;;;;;;5095124;28;20175;-78
2023/09/11 07:58:36;;;;;;;12.23;8.65;;;37.20;99.90;;;;;;5095355;28;20163;-77
2023/09/11 08:01:02;;;;;;;11.32;8.07;;;37.60;99.90;;;;;;5096247;28;20210;-76
2023/09/11 08:03:27;;;;;;;13.27;7.30;;;38.40;99.90;;;;;;5096701;28;20251;-76
2023/09/11 08:05:53;;;;;;;12.25;7.70;;;39.30;66.90;;;;;;5096778;28;20546;-77
2023/09/11 08:08:19;;;;;;;14.25;8.00;;;37.90;83.80;;;;;;5096026;28;20167;-76
2023/09/11 08:10:45;;;;;;;8.55;7.18;;;38.10;83.50;;;;;;5096265;28;20637;-76
2023/09/11 08:13:10;;;;;;;11.32;7.82;;;38.70;87.70;;;;;;5096360;28;20167;-76
2023/09/11 08:15:36;;;;;;;10.35;7.70;;;38.40;53.50;;;;;;5095799;28;20202;-76
2023/09/11 08:18:02;;;;;;;11.48;7.82;;;39.40;37.60;;;;;;5096284;28;20251;-76
2023/09/11 08:20:28;;;;;;;13.10;7.88;;;39.60;14.10;;;;;;5096225;28;20233;-75
2023/09/11 08:22:54;;;;;;;11.35;8.65;;;39.70;1.10;;;;;;5096302;28;20264;-75
2023/09/11 08:25:19;;;;;;;8.80;6.40;;;39.40;1.00;;;;;;5095939;28;20284;-76
2023/09/11 08:27:45;;;;;;;9.30;6.65;;;39.70;1.00;;;;;;5096197;28;20178;-76
2023/09/11 08:30:11;;;;;;;11.38;6.80;;;39.20;1.00;;;;;;5095655;28;20215;-75
2023/09/11 08:32:37;;;;;;;13.27;6.40;;;38.60;1.00;;;;;;5095800;28;20545;-75
2023/09/11 08:35:03;;;;;;;8.45;6.10;;;38.90;1.00;;;;;;5096033;28;20194;-76
2023/09/11 08:37:30;;;;;;;6.07;5.47;;;39.40;1.00;;;;;;5096071;28;20167;-76
2023/09/11 08:39:55;;;;;;;11.70;5.93;;;37.90;1.00;;;;;;5095370;28;20203;-75
2023/09/11 08:42:23;;;;;;;6.13;5.45;;;38.40;1.00;;;;;;5094391;28;20178;-75
2023/09/11 08:44:49;;;;;;;5.60;5.10;;;38.40;1.00;;;;;;5094422;28;20248;-75
2023/09/11 08:47:16;;;;;;;6.50;5.55;;;37.90;1.00;;;;;;5095331;28;20166;-74
2023/09/11 08:49:44;;;;;;;6.63;4.88;;;39.00;1.00;;;;;;5094223;28;20167;-76
2023/09/11 08:52:13;;;;;;;8.68;4.95;;;39.10;1.00;;;;;;5095737;28;20194;-76
2023/09/11 08:54:42;;;;;;;7.07;4.57;;;39.10;1.00;;;;;;5095775;28;20211;-75
2023/09/11 08:57:11;;;;;;;5.07;4.53;;;39.30;1.00;;;;;;5095464;28;20171;-75
2023/09/11 08:59:40;;;;;;;6.22;4.43;;;39.00;1.00;;;;;;5095260;28;20159;-75
2023/09/11 09:02:06;;;;;;;8.63;4.85;;;39.20;1.00;;;;;;5095126;28;20217;-75
2023/09/11 09:04:34;;;;;;;7.18;4.90;;;38.90;1.00;;;;;;5094313;28;20684;-75
2023/09/11 09:07:01;;;;;;;5.40;4.05;;;39.30;1.00;;;;;;5095164;28;20270;-75
2023/09/11 09:09:27;;;;;;;10.95;5.18;;;39.80;1.00;;;;;;5095294;28;20159;-76
2023/09/11 09:11:53;;;;;;;5.20;4.70;;;40.40;1.00;;;;;;5095261;28;20194;-75
2023/09/11 09:14:19;;;;;;;9.13;4.43;;;40.30;1.00;;;;;;5095173;28;20206;-75
2023/09/11 09:16:46;;;;;;;8.15;4.43;;;39.60;1.00;;;;;;5094638;28;20159;-74
2023/09/11 09:19:12;;;;;;;8.43;4.70;;;39.70;1.00;;;;;;5094866;28;20215;-75
2023/09/11 09:22:06;;;;;;;6.40;4.45;;;39.30;1.00;;;;;;5094611;28;20207;-76
2023/09/11 09:24:36;;;;;;;7.30;4.18;;;39.90;1.00;;;;;;5093812;28;20198;-75
2023/09/11 09:27:06;;;;;;;6.63;4.20;;;40.10;1.00;;;;;;5093695;28;20205;-75
2023/09/11 09:29:36;;;;;;;4.90;4.35;;;40.00;1.00;;;;;;5093806;28;20187;-75
2023/09/11 09:32:03;;;;;;;4.40;4.00;;;40.60;1.00;;;;;;5094632;28;20171;-75
2023/09/11 09:34:31;;;;;;;5.03;4.00;;;41.00;1.00;;;;;;5095394;28;20683;-75
2023/09/11 09:36:56;;;;;;;5.18;4.40;;;40.00;1.00;;;;;;5094991;28;20215;-76
2023/09/11 09:39:27;;;;;;;6.70;4.30;;;39.90;1.00;;;;;;5094603;28;20238;-75
2023/09/11 09:41:57;;;;;;;5.75;4.57;;;39.80;1.00;;;;;;5093531;28;20179;-75
2023/09/11 09:44:37;;;;;;;5.95;4.20;;;40.00;1.00;;;;;;5094440;28;20171;-76
2023/09/11 09:47:06;;;;;;;7.43;4.30;;;40.30;1.00;;;;;;5093030;28;20297;-76
2023/09/11 09:49:44;;;;;;;6.18;4.40;;;40.40;1.00;;;;;;5093566;28;20167;-75
2023/09/11 09:52:10;;;;;;;7.35;4.18;;;40.30;1.00;;;;;;5094277;28;20174;-74
2023/09/11 09:54:44;;;;;;;7.40;4.68;;;40.30;1.00;;;;;;5093719;28;20192;-75
2023/09/11 09:57:14;;;;;;;5.90;4.28;;;40.10;1.00;;;;;;5093823;28;20174;-75
2023/09/11 09:59:41;;;;;;;5.65;4.40;;;39.80;1.00;;;;;;5094452;28;20163;-75
2023/09/11 10:02:12;;;;;;;5.38;4.30;;;39.80;1.00;;;;;;5095166;28;20168;-76
2023/09/11 10:04:38;;;;;;;5.95;4.20;;;40.00;1.00;;;;;;5094224;28;20163;-76
2023/09/11 10:07:04;;;;;;;6.35;4.68;;;40.30;1.00;;;;;;5093606;28;20160;-76
2023/09/11 10:09:30;;;;;;;7.82;5.10;;;40.00;1.00;;;;;;5093432;28;20254;-76
2023/09/11 10:12:03;;;;;;;8.52;4.40;;;40.00;1.00;;;;;;5094190;28;20661;-73
2023/09/11 10:14:29;;;;;;;8.80;5.78;;;40.00;1.00;;;;;;5094013;28;20623;-75
2023/09/11 10:16:57;;;;;;;7.45;4.97;;;40.20;1.00;;;;;;5094143;28;20164;-75
2023/09/11 10:19:24;;;;;;;9.35;4.88;;;39.80;1.00;;;;;;5092643;28;20219;-76
2023/09/11 10:21:49;;;;;;;5.43;4.35;;;40.20;1.00;;;;;;5093873;28;20254;-75
2023/09/11 10:24:15;;;;;;;4.72;4.10;;;40.30;1.00;;;;;;5093804;28;20286;-74
2023/09/11 10:26:46;;;;;;;10.40;4.45;;;40.30;1.00;;;;;;5093110;28;20171;-75
2023/09/11 10:29:20;;;;;;;11.73;4.40;;;40.60;1.00;;;;;;5093752;28;20258;-75
2023/09/11 10:31:52;;;;;;;5.65;4.28;;;40.60;1.00;;;;;;5093605;28;20167;-75
2023/09/11 10:34:19;;;;;;;6.35;4.43;;;39.90;1.00;;;;;;5093824;28;20176;-75
2023/09/11 10:36:49;;;;;;;8.20;4.95;;;39.80;1.00;;;;;;5093445;28;20190;-76
2023/09/11 10:39:17;;;;;;;7.70;4.03;;;39.50;1.00;;;;;;5093580;28;20163;-75
2023/09/11 10:41:44;;;;;;;5.57;4.30;;;39.80;1.00;;;;;;5092808;28;20256;-75
2023/09/11 10:44:10;;;;;;;7.28;3.90;;;40.10;1.00;;;;;;5092352;28;20163;-75
2023/09/11 10:46:38;;;;;;;5.35;4.18;;;40.20;1.00;;;;;;5093401;28;20174;-75
2023/09/11 10:49:17;;;;;;;4.95;3.75;;;40.30;1.00;;;;;;5091859;28;20172;-76
2023/09/11 10:51:46;;;;;;;4.90;4.10;;;40.20;1.00;;;;;;5093067;28;20163;-76
2023/09/11 10:54:14;;;;;;;9.93;4.25;;;39.50;1.00;;;;;;5092985;28;20600;-76
2023/09/11 10:56:40;;;;;;;6.63;3.70;;;39.70;1.00;;;;;;5092191;28;20171;-76
2023/09/11 10:59:07;;;;;;;4.03;3.63;;;40.30;1.00;;;;;;5093153;28;20171;-76
2023/09/11 11:01:33;;;;;;;4.90;3.72;;;40.10;1.00;;;;;;5093165;28;20198;-76
2023/09/11 11:04:05;;;;;;;4.75;4.20;;;40.50;1.00;;;;;;5091215;28;20183;-75
2023/09/11 11:06:32;;;;;;;5.05;4.07;;;40.20;1.00;;;;;;5092919;28;20213;-76
2023/09/11 11:09:01;;;;;;;6.13;3.45;;;39.90;1.00;;;;;;5093095;28;20163;-77
2023/09/11 11:11:29;;;;;;;5.97;4.90;;;40.00;1.00;;;;;;5092604;28;20530;-75
2023/09/11 11:14:12;;;;;;;4.72;4.22;;;39.60;1.00;;;;;;5092925;28;20167;-76
2023/09/11 11:16:39;;;;;;;8.90;4.70;;;39.50;1.00;;;;;;5093046;28;20247;-76
2023/09/11 11:19:05;;;;;;;3.60;3.30;;;39.40;1.00;;;;;;5092683;28;20207;-77
2023/09/11 11:21:40;;;;;;;6.80;3.65;;;39.70;1.00;;;;;;5091969;28;21346;-76
2023/09/11 11:24:09;;;;;;;5.22;3.63;;;40.00;1.00;;;;;;5091488;28;20171;-76
2023/09/11 11:26:37;;;;;;;3.58;3.28;;;39.80;1.00;;;;;;5091025;28;20224;-76
2023/09/11 11:29:03;;;;;;;13.18;3.25;;;39.40;1.00;;;;;;5091212;28;20169;-77
2023/09/11 11:31:31;;;;;;;5.90;3.25;;;39.70;1.00;;;;;;5092549;28;20191;-77
2023/09/11 11:33:59;;;;;;;8.20;3.45;;;40.00;1.00;;;;;;5086341;28;20181;-78
2023/09/11 11:36:26;;;;;;;3.40;3.10;;;39.90;1.00;;;;;;5090262;28;20206;-76
2023/09/11 11:38:55;;;;;;;4.75;3.40;;;39.50;1.00;;;;;;5115609;28;20167;-76
2023/09/11 11:41:21;;;;;;;9.70;3.33;;;39.60;1.00;;;;;;5114742;28;20206;-77
2023/09/11 11:43:47;;;;;;;4.88;3.35;;;40.00;1.00;;;;;;5099674;28;20171;-76
2023/09/11 11:46:15;;;;;;;5.70;3.70;;;40.30;1.00;;;;;;5108288;28;20261;-77
2023/09/11 11:48:41;;;;;;;4.05;3.50;;;39.80;1.00;;;;;;5111959;28;20302;-77
2023/09/11 11:51:07;;;;;;;3.88;3.30;;;39.70;1.00;;;;;;5105794;28;20180;-77
2023/09/11 11:53:33;;;;;;;4.30;3.50;;;39.40;1.00;;;;;;5090688;28;20701;-75
2023/09/11 11:56:02;;;;;;;4.78;3.13;;;39.10;1.00;;;;;;5105618;28;20177;-75
2023/09/11 11:58:28;;;;;;;8.15;3.75;;;38.50;1.00;;;;;;5094088;28;20190;-78
2023/09/11 12:00:59;;;;;;;9.57;4.57;;;37.80;1.00;;;;;;5105915;28;20190;-76
2023/09/11 12:03:26;;;;;;;5.85;3.80;;;37.60;1.00;;;;;;5101548;28;20178;-76
2023/09/11 12:05:52;;;;;;;6.65;3.65;;;37.40;1.00;;;;;;5112175;28;20242;-74
2023/09/11 12:08:18;;;;;;;6.43;3.42;;;37.70;1.00;;;;;;5110644;28;20167;-77
2023/09/11 12:10:45;;;;;;;7.88;3.90;;;37.60;1.00;;;;;;5107144;28;20167;-76
2023/09/11 12:13:18;;;;;;;4.22;3.45;;;37.10;1.00;;;;;;5090444;28;20179;-76
2023/09/11 12:15:54;;;;;;;5.05;3.15;;;36.30;1.00;;;;;;5104049;28;20167;-78
2023/09/11 12:18:21;;;;;;;4.18;3.72;;;35.90;1.00;;;;;;5094750;28;20167;-77
2023/09/11 12:20:56;;;;;;;4.97;4.03;;;35.50;1.00;;;;;;5112139;28;20238;-76
2023/09/11 12:23:22;;;;;;;7.20;3.40;;;35.30;1.00;;;;;;5111430;28;20190;-77
2023/09/11 12:25:49;;;;;;;4.70;3.80;;;35.10;1.00;;;;;;5099640;28;20211;-76
2023/09/11 12:28:15;;;;;;;6.20;3.60;;;34.80;1.00;;;;;;5091707;28;20208;-77
2023/09/11 12:30:43;;;;;;;6.03;3.60;;;34.30;1.00;;;;;;5089632;28;20662;-74
2023/09/11 12:33:09;;;;;;;7.90;3.78;;;34.20;20.60;;;;;;5091455;28;20530;-77
2023/09/11 12:35:36;;;;;;;8.90;3.95;;;33.90;34.30;;;;;;5102271;28;20303;-76
2023/09/11 12:38:03;;;;;;;5.95;3.95;;;33.80;99.90;;;;;;5111644;28;20171;-77
2023/09/11 12:40:29;;;;;;;4.75;3.55;;;33.70;99.90;;;;;;5097546;28;20365;-76
2023/09/11 12:42:55;;;;;;;4.93;3.42;;;33.70;99.90;;;;;;5110270;27;20157;-76
2023/09/11 12:45:21;;;;;;;4.88;3.83;;;33.60;51.20;;;;;;5095546;28;20232;-76